Aviation Digital Data Service (ADDS)

Output produced by TAFs form (1714 UTC 20 December 2014)
found at http://aviationweather.gov/adds/tafs/
 
KHOB 201609Z 2016/2112 15005KT 6SM BR OVC004 
     TEMPO 2016/2019 P6SM NSW OVC020 
     FM201900 18008KT P6SM FEW200